sensor_id;sensor_type;location;lat;lon;timestamp;P1;durP1;ratioP1;P2;durP2;ratioP2
42030;SDS011;27709;52.036;5.906;2023-02-28T00:00:26;4.78;;;2.60;;
42030;SDS011;27709;52.036;5.906;2023-02-28T00:02:52;5.18;;;2.00;;
42030;SDS011;27709;52.036;5.906;2023-02-28T00:05:20;4.55;;;2.20;;
42030;SDS011;27709;52.036;5.906;2023-02-28T00:07:47;3.85;;;2.20;;
42030;SDS011;27709;52.036;5.906;2023-02-28T00:10:15;4.68;;;2.38;;
42030;SDS011;27709;52.036;5.906;2023-02-28T00:12:45;3.80;;;2.13;;
42030;SDS011;27709;52.036;5.906;2023-02-28T00:15:12;3.55;;;2.35;;
42030;SDS011;27709;52.036;5.906;2023-02-28T00:17:37;4.72;;;2.30;;
42030;SDS011;27709;52.036;5.906;2023-02-28T00:20:03;5.00;;;2.55;;
42030;SDS011;27709;52.036;5.906;2023-02-28T00:22:34;3.47;;;2.08;;
42030;SDS011;27709;52.036;5.906;2023-02-28T00:25:01;5.00;;;2.40;;
42030;SDS011;27709;52.036;5.906;2023-02-28T00:27:27;5.32;;;2.25;;
42030;SDS011;27709;52.036;5.906;2023-02-28T00:29:52;3.67;;;2.50;;
42030;SDS011;27709;52.036;5.906;2023-02-28T00:32:19;4.38;;;2.53;;
42030;SDS011;27709;52.036;5.906;2023-02-28T00:34:44;3.90;;;2.30;;
42030;SDS011;27709;52.036;5.906;2023-02-28T00:37:10;2.92;;;2.00;;
42030;SDS011;27709;52.036;5.906;2023-02-28T00:39:39;4.32;;;2.67;;
42030;SDS011;27709;52.036;5.906;2023-02-28T00:42:05;5.00;;;2.40;;
42030;SDS011;27709;52.036;5.906;2023-02-28T00:44:32;3.63;;;2.30;;
42030;SDS011;27709;52.036;5.906;2023-02-28T00:46:58;4.70;;;2.70;;
42030;SDS011;27709;52.036;5.906;2023-02-28T00:49:24;4.60;;;2.92;;
42030;SDS011;27709;52.036;5.906;2023-02-28T00:51:51;4.85;;;2.80;;
42030;SDS011;27709;52.036;5.906;2023-02-28T00:54:17;3.95;;;2.85;;
42030;SDS011;27709;52.036;5.906;2023-02-28T00:56:43;4.65;;;2.53;;
42030;SDS011;27709;52.036;5.906;2023-02-28T00:59:08;4.45;;;2.70;;
42030;SDS011;27709;52.036;5.906;2023-02-28T01:01:34;4.35;;;2.80;;
42030;SDS011;27709;52.036;5.906;2023-02-28T01:03:59;4.75;;;2.38;;
42030;SDS011;27709;52.036;5.906;2023-02-28T01:06:25;7.20;;;2.90;;
42030;SDS011;27709;52.036;5.906;2023-02-28T01:08:51;5.90;;;2.80;;
42030;SDS011;27709;52.036;5.906;2023-02-28T01:11:17;4.75;;;2.63;;
42030;SDS011;27709;52.036;5.906;2023-02-28T01:13:43;6.70;;;2.90;;
42030;SDS011;27709;52.036;5.906;2023-02-28T01:16:10;5.15;;;2.75;;
42030;SDS011;27709;52.036;5.906;2023-02-28T01:18:35;4.13;;;2.60;;
42030;SDS011;27709;52.036;5.906;2023-02-28T01:21:09;4.53;;;2.90;;
42030;SDS011;27709;52.036;5.906;2023-02-28T01:23:37;5.35;;;2.67;;
42030;SDS011;27709;52.036;5.906;2023-02-28T01:26:04;5.50;;;2.85;;
42030;SDS011;27709;52.036;5.906;2023-02-28T01:28:30;6.00;;;3.13;;
42030;SDS011;27709;52.036;5.906;2023-02-28T01:30:56;5.28;;;2.75;;
42030;SDS011;27709;52.036;5.906;2023-02-28T01:33:21;6.80;;;3.10;;
42030;SDS011;27709;52.036;5.906;2023-02-28T01:35:47;4.78;;;2.80;;
42030;SDS011;27709;52.036;5.906;2023-02-28T01:38:13;5.03;;;2.80;;
42030;SDS011;27709;52.036;5.906;2023-02-28T01:40:39;7.13;;;3.17;;
42030;SDS011;27709;52.036;5.906;2023-02-28T01:43:09;5.97;;;3.20;;
42030;SDS011;27709;52.036;5.906;2023-02-28T01:45:53;5.22;;;3.25;;
42030;SDS011;27709;52.036;5.906;2023-02-28T01:48:27;4.95;;;3.03;;
42030;SDS011;27709;52.036;5.906;2023-02-28T01:50:58;6.45;;;3.10;;
42030;SDS011;27709;52.036;5.906;2023-02-28T01:53:36;5.60;;;2.97;;
42030;SDS011;27709;52.036;5.906;2023-02-28T01:56:06;5.57;;;3.10;;
42030;SDS011;27709;52.036;5.906;2023-02-28T01:58:34;4.97;;;2.88;;
42030;SDS011;27709;52.036;5.906;2023-02-28T02:01:01;5.30;;;2.83;;
42030;SDS011;27709;52.036;5.906;2023-02-28T02:03:27;4.50;;;3.00;;
42030;SDS011;27709;52.036;5.906;2023-02-28T02:05:55;6.93;;;2.80;;
42030;SDS011;27709;52.036;5.906;2023-02-28T02:08:24;4.70;;;2.80;;
42030;SDS011;27709;52.036;5.906;2023-02-28T02:10:57;6.18;;;3.45;;
42030;SDS011;27709;52.036;5.906;2023-02-28T02:36:04;6.18;;;3.75;;
42030;SDS011;27709;52.036;5.906;2023-02-28T02:38:50;7.75;;;3.67;;
42030;SDS011;27709;52.036;5.906;2023-02-28T02:41:33;5.75;;;3.42;;
42030;SDS011;27709;52.036;5.906;2023-02-28T02:46:47;7.40;;;3.78;;
42030;SDS011;27709;52.036;5.906;2023-02-28T02:49:20;7.38;;;3.72;;
42030;SDS011;27709;52.036;5.906;2023-02-28T02:51:49;5.72;;;3.45;;
42030;SDS011;27709;52.036;5.906;2023-02-28T02:54:19;6.50;;;3.50;;
42030;SDS011;27709;52.036;5.906;2023-02-28T02:56:52;8.20;;;3.55;;
42030;SDS011;27709;52.036;5.906;2023-02-28T02:59:19;7.03;;;3.17;;
42030;SDS011;27709;52.036;5.906;2023-02-28T03:01:49;5.10;;;3.40;;
42030;SDS011;27709;52.036;5.906;2023-02-28T03:04:20;5.90;;;4.03;;
42030;SDS011;27709;52.036;5.906;2023-02-28T03:06:47;8.75;;;3.60;;
42030;SDS011;27709;52.036;5.906;2023-02-28T03:09:13;6.82;;;3.95;;
42030;SDS011;27709;52.036;5.906;2023-02-28T03:11:38;8.90;;;4.30;;
42030;SDS011;27709;52.036;5.906;2023-02-28T03:17:35;7.50;;;4.15;;
42030;SDS011;27709;52.036;5.906;2023-02-28T03:20:17;7.65;;;4.13;;
42030;SDS011;27709;52.036;5.906;2023-02-28T03:31:15;5.97;;;3.95;;
42030;SDS011;27709;52.036;5.906;2023-02-28T03:33:55;6.75;;;3.72;;
42030;SDS011;27709;52.036;5.906;2023-02-28T03:36:29;6.30;;;3.65;;
42030;SDS011;27709;52.036;5.906;2023-02-28T03:38:59;7.18;;;3.75;;
42030;SDS011;27709;52.036;5.906;2023-02-28T03:41:38;8.40;;;4.43;;
42030;SDS011;27709;52.036;5.906;2023-02-28T03:44:11;6.60;;;3.97;;
42030;SDS011;27709;52.036;5.906;2023-02-28T03:46:42;6.80;;;4.28;;
42030;SDS011;27709;52.036;5.906;2023-02-28T03:49:25;6.40;;;3.85;;
42030;SDS011;27709;52.036;5.906;2023-02-28T03:51:56;6.88;;;4.22;;
42030;SDS011;27709;52.036;5.906;2023-02-28T03:54:31;6.63;;;3.88;;
42030;SDS011;27709;52.036;5.906;2023-02-28T03:57:05;8.00;;;3.53;;
42030;SDS011;27709;52.036;5.906;2023-02-28T03:59:47;5.97;;;3.60;;
42030;SDS011;27709;52.036;5.906;2023-02-28T04:02:17;6.93;;;4.35;;
42030;SDS011;27709;52.036;5.906;2023-02-28T04:04:43;7.63;;;4.20;;
42030;SDS011;27709;52.036;5.906;2023-02-28T04:07:13;7.43;;;4.30;;
42030;SDS011;27709;52.036;5.906;2023-02-28T04:09:40;8.75;;;4.47;;
42030;SDS011;27709;52.036;5.906;2023-02-28T04:12:06;7.78;;;4.63;;
42030;SDS011;27709;52.036;5.906;2023-02-28T04:14:31;7.28;;;4.10;;
42030;SDS011;27709;52.036;5.906;2023-02-28T04:16:57;6.78;;;4.47;;
42030;SDS011;27709;52.036;5.906;2023-02-28T04:19:23;7.90;;;4.05;;
42030;SDS011;27709;52.036;5.906;2023-02-28T04:21:49;5.18;;;3.75;;
42030;SDS011;27709;52.036;5.906;2023-02-28T04:24:20;6.57;;;3.80;;
42030;SDS011;27709;52.036;5.906;2023-02-28T04:26:51;7.13;;;3.75;;
42030;SDS011;27709;52.036;5.906;2023-02-28T04:29:20;7.35;;;3.75;;
42030;SDS011;27709;52.036;5.906;2023-02-28T04:31:49;6.65;;;3.08;;
42030;SDS011;27709;52.036;5.906;2023-02-28T04:34:15;5.85;;;3.20;;
42030;SDS011;27709;52.036;5.906;2023-02-28T04:36:41;5.07;;;2.97;;
42030;SDS011;27709;52.036;5.906;2023-02-28T04:39:07;4.53;;;2.90;;
42030;SDS011;27709;52.036;5.906;2023-02-28T04:41:34;4.78;;;2.60;;
42030;SDS011;27709;52.036;5.906;2023-02-28T04:44:00;4.32;;;2.40;;
42030;SDS011;27709;52.036;5.906;2023-02-28T04:46:25;6.25;;;2.40;;
42030;SDS011;27709;52.036;5.906;2023-02-28T04:48:51;4.28;;;2.20;;
42030;SDS011;27709;52.036;5.906;2023-02-28T04:51:17;4.53;;;2.20;;
42030;SDS011;27709;52.036;5.906;2023-02-28T04:53:44;4.32;;;2.60;;
42030;SDS011;27709;52.036;5.906;2023-02-28T04:56:12;4.28;;;2.38;;
42030;SDS011;27709;52.036;5.906;2023-02-28T04:58:39;4.63;;;2.38;;
42030;SDS011;27709;52.036;5.906;2023-02-28T05:01:49;4.68;;;2.15;;
42030;SDS011;27709;52.036;5.906;2023-02-28T05:03:53;4.35;;;2.08;;
42030;SDS011;27709;52.036;5.906;2023-02-28T05:06:20;3.78;;;2.05;;
42030;SDS011;27709;52.036;5.906;2023-02-28T05:08:48;3.28;;;1.90;;
42030;SDS011;27709;52.036;5.906;2023-02-28T05:11:15;3.85;;;1.92;;
42030;SDS011;27709;52.036;5.906;2023-02-28T05:13:45;3.28;;;2.00;;
42030;SDS011;27709;52.036;5.906;2023-02-28T05:16:11;4.05;;;2.20;;
42030;SDS011;27709;52.036;5.906;2023-02-28T05:18:37;4.97;;;2.15;;
42030;SDS011;27709;52.036;5.906;2023-02-28T05:21:02;3.20;;;2.10;;
42030;SDS011;27709;52.036;5.906;2023-02-28T05:23:28;2.97;;;1.80;;
42030;SDS011;27709;52.036;5.906;2023-02-28T05:25:54;4.32;;;1.92;;
42030;SDS011;27709;52.036;5.906;2023-02-28T05:28:20;4.28;;;2.00;;
42030;SDS011;27709;52.036;5.906;2023-02-28T05:30:46;3.47;;;2.00;;
42030;SDS011;27709;52.036;5.906;2023-02-28T05:33:12;3.45;;;1.80;;
42030;SDS011;27709;52.036;5.906;2023-02-28T05:35:39;3.22;;;1.90;;
42030;SDS011;27709;52.036;5.906;2023-02-28T05:38:05;4.47;;;2.10;;
42030;SDS011;27709;52.036;5.906;2023-02-28T05:40:31;3.97;;;2.35;;
42030;SDS011;27709;52.036;5.906;2023-02-28T05:42:56;4.72;;;1.88;;
42030;SDS011;27709;52.036;5.906;2023-02-28T05:45:22;4.35;;;1.98;;
42030;SDS011;27709;52.036;5.906;2023-02-28T05:47:47;3.30;;;1.98;;
42030;SDS011;27709;52.036;5.906;2023-02-28T05:50:12;4.57;;;2.33;;
42030;SDS011;27709;52.036;5.906;2023-02-28T05:52:38;3.55;;;1.92;;
42030;SDS011;27709;52.036;5.906;2023-02-28T05:55:04;4.15;;;2.33;;
42030;SDS011;27709;52.036;5.906;2023-02-28T05:57:30;4.05;;;2.22;;
42030;SDS011;27709;52.036;5.906;2023-02-28T05:59:55;4.38;;;1.95;;
42030;SDS011;27709;52.036;5.906;2023-02-28T06:02:21;3.65;;;2.20;;
42030;SDS011;27709;52.036;5.906;2023-02-28T06:04:46;4.70;;;2.40;;
42030;SDS011;27709;52.036;5.906;2023-02-28T06:07:12;5.25;;;2.28;;
42030;SDS011;27709;52.036;5.906;2023-02-28T06:09:37;3.42;;;1.92;;
42030;SDS011;27709;52.036;5.906;2023-02-28T06:12:03;3.85;;;2.17;;
42030;SDS011;27709;52.036;5.906;2023-02-28T06:14:32;4.03;;;2.25;;
42030;SDS011;27709;52.036;5.906;2023-02-28T06:16:59;5.32;;;2.25;;
42030;SDS011;27709;52.036;5.906;2023-02-28T06:19:25;3.58;;;2.05;;
42030;SDS011;27709;52.036;5.906;2023-02-28T06:21:52;3.13;;;2.00;;
42030;SDS011;27709;52.036;5.906;2023-02-28T06:24:21;4.35;;;1.80;;
42030;SDS011;27709;52.036;5.906;2023-02-28T06:26:48;4.10;;;1.88;;
42030;SDS011;27709;52.036;5.906;2023-02-28T06:29:14;4.78;;;2.17;;
42030;SDS011;27709;52.036;5.906;2023-02-28T06:31:43;3.80;;;2.10;;
42030;SDS011;27709;52.036;5.906;2023-02-28T06:34:09;3.15;;;1.88;;
42030;SDS011;27709;52.036;5.906;2023-02-28T06:36:39;3.80;;;2.00;;
42030;SDS011;27709;52.036;5.906;2023-02-28T06:39:05;3.45;;;2.05;;
42030;SDS011;27709;52.036;5.906;2023-02-28T06:41:31;3.40;;;2.00;;
42030;SDS011;27709;52.036;5.906;2023-02-28T06:44:04;3.05;;;2.00;;
42030;SDS011;27709;52.036;5.906;2023-02-28T06:46:30;3.38;;;1.85;;
42030;SDS011;27709;52.036;5.906;2023-02-28T06:48:57;3.28;;;1.83;;
42030;SDS011;27709;52.036;5.906;2023-02-28T06:51:22;3.55;;;2.10;;
42030;SDS011;27709;52.036;5.906;2023-02-28T06:53:49;4.75;;;1.73;;
42030;SDS011;27709;52.036;5.906;2023-02-28T06:56:15;3.75;;;1.80;;
42030;SDS011;27709;52.036;5.906;2023-02-28T06:58:41;3.42;;;2.10;;
42030;SDS011;27709;52.036;5.906;2023-02-28T07:01:10;3.80;;;1.80;;
42030;SDS011;27709;52.036;5.906;2023-02-28T07:03:36;3.22;;;1.63;;
42030;SDS011;27709;52.036;5.906;2023-02-28T07:06:01;3.20;;;1.30;;
42030;SDS011;27709;52.036;5.906;2023-02-28T07:08:28;3.30;;;1.50;;
42030;SDS011;27709;52.036;5.906;2023-02-28T07:10:54;2.95;;;1.58;;
42030;SDS011;27709;52.036;5.906;2023-02-28T07:13:21;2.80;;;1.48;;
42030;SDS011;27709;52.036;5.906;2023-02-28T07:18:44;2.67;;;1.40;;
42030;SDS011;27709;52.036;5.906;2023-02-28T07:21:10;2.90;;;1.50;;
42030;SDS011;27709;52.036;5.906;2023-02-28T07:23:36;2.72;;;1.50;;
42030;SDS011;27709;52.036;5.906;2023-02-28T07:26:03;3.25;;;1.30;;
42030;SDS011;27709;52.036;5.906;2023-02-28T07:28:36;2.28;;;1.20;;
42030;SDS011;27709;52.036;5.906;2023-02-28T07:31:05;2.83;;;1.42;;
42030;SDS011;27709;52.036;5.906;2023-02-28T07:33:31;3.78;;;1.50;;
42030;SDS011;27709;52.036;5.906;2023-02-28T07:36:01;3.40;;;1.45;;
42030;SDS011;27709;52.036;5.906;2023-02-28T07:38:31;3.25;;;1.20;;
42030;SDS011;27709;52.036;5.906;2023-02-28T07:40:59;2.95;;;1.27;;
42030;SDS011;27709;52.036;5.906;2023-02-28T07:43:24;2.78;;;1.00;;
42030;SDS011;27709;52.036;5.906;2023-02-28T07:45:50;2.45;;;1.40;;
42030;SDS011;27709;52.036;5.906;2023-02-28T07:48:15;2.92;;;1.40;;
42030;SDS011;27709;52.036;5.906;2023-02-28T07:50:41;4.18;;;1.40;;
42030;SDS011;27709;52.036;5.906;2023-02-28T07:53:06;2.70;;;1.23;;
42030;SDS011;27709;52.036;5.906;2023-02-28T07:55:32;3.50;;;1.58;;
42030;SDS011;27709;52.036;5.906;2023-02-28T07:57:58;3.47;;;1.30;;
42030;SDS011;27709;52.036;5.906;2023-02-28T08:00:23;3.78;;;1.40;;
42030;SDS011;27709;52.036;5.906;2023-02-28T08:02:49;2.75;;;1.35;;
42030;SDS011;27709;52.036;5.906;2023-02-28T08:05:15;2.33;;;1.30;;
42030;SDS011;27709;52.036;5.906;2023-02-28T08:07:40;2.67;;;1.50;;
42030;SDS011;27709;52.036;5.906;2023-02-28T08:10:06;2.88;;;1.40;;
42030;SDS011;27709;52.036;5.906;2023-02-28T08:12:33;1.85;;;1.20;;
42030;SDS011;27709;52.036;5.906;2023-02-28T08:14:59;2.60;;;1.08;;
42030;SDS011;27709;52.036;5.906;2023-02-28T08:17:24;3.65;;;1.40;;
42030;SDS011;27709;52.036;5.906;2023-02-28T08:19:50;3.75;;;1.40;;
42030;SDS011;27709;52.036;5.906;2023-02-28T08:22:15;1.90;;;1.10;;
42030;SDS011;27709;52.036;5.906;2023-02-28T08:24:41;3.15;;;1.13;;
42030;SDS011;27709;52.036;5.906;2023-02-28T08:27:08;2.20;;;0.98;;
42030;SDS011;27709;52.036;5.906;2023-02-28T08:29:36;4.35;;;1.60;;
42030;SDS011;27709;52.036;5.906;2023-02-28T08:32:02;3.92;;;1.20;;
42030;SDS011;27709;52.036;5.906;2023-02-28T08:34:27;3.40;;;1.35;;
42030;SDS011;27709;52.036;5.906;2023-02-28T08:36:53;2.30;;;1.10;;
42030;SDS011;27709;52.036;5.906;2023-02-28T08:39:18;2.63;;;1.00;;
42030;SDS011;27709;52.036;5.906;2023-02-28T08:41:44;2.35;;;0.90;;
42030;SDS011;27709;52.036;5.906;2023-02-28T08:44:10;2.10;;;0.98;;
42030;SDS011;27709;52.036;5.906;2023-02-28T08:46:35;2.53;;;0.93;;
42030;SDS011;27709;52.036;5.906;2023-02-28T08:49:01;1.27;;;0.88;;
42030;SDS011;27709;52.036;5.906;2023-02-28T08:51:27;1.80;;;1.10;;
42030;SDS011;27709;52.036;5.906;2023-02-28T08:53:54;2.20;;;0.80;;
42030;SDS011;27709;52.036;5.906;2023-02-28T08:56:22;2.55;;;0.90;;
42030;SDS011;27709;52.036;5.906;2023-02-28T08:58:49;1.67;;;0.70;;
42030;SDS011;27709;52.036;5.906;2023-02-28T09:01:19;3.00;;;0.73;;
42030;SDS011;27709;52.036;5.906;2023-02-28T09:03:46;2.17;;;0.90;;
42030;SDS011;27709;52.036;5.906;2023-02-28T09:06:13;1.50;;;0.70;;
42030;SDS011;27709;52.036;5.906;2023-02-28T09:08:40;1.63;;;0.90;;
42030;SDS011;27709;52.036;5.906;2023-02-28T09:11:06;2.17;;;0.80;;
42030;SDS011;27709;52.036;5.906;2023-02-28T09:13:32;2.38;;;0.80;;
42030;SDS011;27709;52.036;5.906;2023-02-28T09:15:59;1.98;;;0.85;;
42030;SDS011;27709;52.036;5.906;2023-02-28T09:18:25;1.30;;;0.70;;
42030;SDS011;27709;52.036;5.906;2023-02-28T09:20:51;1.30;;;0.60;;
42030;SDS011;27709;52.036;5.906;2023-02-28T09:23:17;2.50;;;0.95;;
42030;SDS011;27709;52.036;5.906;2023-02-28T09:25:47;1.52;;;0.80;;
42030;SDS011;27709;52.036;5.906;2023-02-28T09:28:14;1.98;;;0.90;;
42030;SDS011;27709;52.036;5.906;2023-02-28T09:30:47;2.58;;;1.00;;
42030;SDS011;27709;52.036;5.906;2023-02-28T09:33:17;2.33;;;0.70;;
42030;SDS011;27709;52.036;5.906;2023-02-28T09:35:46;1.77;;;0.80;;
42030;SDS011;27709;52.036;5.906;2023-02-28T09:38:12;2.38;;;0.80;;
42030;SDS011;27709;52.036;5.906;2023-02-28T09:40:39;1.80;;;0.80;;
42030;SDS011;27709;52.036;5.906;2023-02-28T09:43:18;2.10;;;0.60;;
42030;SDS011;27709;52.036;5.906;2023-02-28T09:45:48;1.45;;;0.55;;
42030;SDS011;27709;52.036;5.906;2023-02-28T09:48:24;1.83;;;0.70;;
42030;SDS011;27709;52.036;5.906;2023-02-28T09:50:55;1.85;;;0.80;;
42030;SDS011;27709;52.036;5.906;2023-02-28T09:55:59;1.75;;;0.70;;
42030;SDS011;27709;52.036;5.906;2023-02-28T09:58:34;1.73;;;0.80;;
42030;SDS011;27709;52.036;5.906;2023-02-28T10:01:09;2.22;;;0.80;;
42030;SDS011;27709;52.036;5.906;2023-02-28T10:04:14;1.42;;;0.68;;
42030;SDS011;27709;52.036;5.906;2023-02-28T10:06:50;3.22;;;1.00;;
42030;SDS011;27709;52.036;5.906;2023-02-28T10:09:22;2.25;;;0.90;;
42030;SDS011;27709;52.036;5.906;2023-02-28T10:11:53;2.00;;;1.00;;
42030;SDS011;27709;52.036;5.906;2023-02-28T10:14:26;2.35;;;0.88;;
42030;SDS011;27709;52.036;5.906;2023-02-28T10:25:19;1.85;;;0.70;;
42030;SDS011;27709;52.036;5.906;2023-02-28T10:27:46;1.60;;;0.73;;
42030;SDS011;27709;52.036;5.906;2023-02-28T10:30:12;3.17;;;1.00;;
42030;SDS011;27709;52.036;5.906;2023-02-28T10:32:42;2.22;;;1.00;;
42030;SDS011;27709;52.036;5.906;2023-02-28T10:35:15;1.55;;;0.88;;
42030;SDS011;27709;52.036;5.906;2023-02-28T10:37:45;2.47;;;0.88;;
42030;SDS011;27709;52.036;5.906;2023-02-28T10:42:55;2.35;;;0.80;;
42030;SDS011;27709;52.036;5.906;2023-02-28T10:45:20;3.10;;;0.90;;
42030;SDS011;27709;52.036;5.906;2023-02-28T10:47:49;1.75;;;0.93;;
42030;SDS011;27709;52.036;5.906;2023-02-28T11:01:38;1.38;;;0.80;;
42030;SDS011;27709;52.036;5.906;2023-02-28T11:04:16;2.70;;;1.13;;
42030;SDS011;27709;52.036;5.906;2023-02-28T11:06:44;1.88;;;0.90;;
42030;SDS011;27709;52.036;5.906;2023-02-28T11:09:16;1.33;;;0.80;;
42030;SDS011;27709;52.036;5.906;2023-02-28T11:11:54;4.85;;;2.47;;
42030;SDS011;27709;52.036;5.906;2023-02-28T11:14:22;1.58;;;0.80;;
42030;SDS011;27709;52.036;5.906;2023-02-28T11:16:51;2.38;;;0.90;;
42030;SDS011;27709;52.036;5.906;2023-02-28T11:19:25;2.00;;;1.00;;
42030;SDS011;27709;52.036;5.906;2023-02-28T11:21:59;2.30;;;0.80;;
42030;SDS011;27709;52.036;5.906;2023-02-28T11:24:31;1.52;;;0.80;;
42030;SDS011;27709;52.036;5.906;2023-02-28T11:27:01;2.38;;;1.00;;
42030;SDS011;27709;52.036;5.906;2023-02-28T11:29:28;1.27;;;0.70;;
42030;SDS011;27709;52.036;5.906;2023-02-28T11:34:36;2.15;;;1.00;;
42030;SDS011;27709;52.036;5.906;2023-02-28T11:37:03;1.52;;;1.00;;
42030;SDS011;27709;52.036;5.906;2023-02-28T11:39:30;1.83;;;1.00;;
42030;SDS011;27709;52.036;5.906;2023-02-28T11:44:36;2.30;;;0.95;;
42030;SDS011;27709;52.036;5.906;2023-02-28T11:47:18;2.85;;;1.30;;
42030;SDS011;27709;52.036;5.906;2023-02-28T11:53:29;1.63;;;0.98;;
42030;SDS011;27709;52.036;5.906;2023-02-28T11:56:02;2.63;;;1.20;;
42030;SDS011;27709;52.036;5.906;2023-02-28T11:58:38;3.25;;;1.40;;
42030;SDS011;27709;52.036;5.906;2023-02-28T12:01:27;1.85;;;1.33;;
42030;SDS011;27709;52.036;5.906;2023-02-28T12:04:15;3.40;;;1.10;;
42030;SDS011;27709;52.036;5.906;2023-02-28T12:06:55;1.90;;;1.15;;
42030;SDS011;27709;52.036;5.906;2023-02-28T12:15:18;2.70;;;1.10;;
42030;SDS011;27709;52.036;5.906;2023-02-28T12:28:50;2.95;;;1.50;;
42030;SDS011;27709;52.036;5.906;2023-02-28T12:31:28;2.38;;;1.50;;
42030;SDS011;27709;52.036;5.906;2023-02-28T12:34:10;4.07;;;1.60;;
42030;SDS011;27709;52.036;5.906;2023-02-28T12:36:38;2.45;;;1.60;;
42030;SDS011;27709;52.036;5.906;2023-02-28T12:41:36;1.98;;;1.30;;
42030;SDS011;27709;52.036;5.906;2023-02-28T12:46:38;2.17;;;1.20;;
42030;SDS011;27709;52.036;5.906;2023-02-28T12:49:09;2.15;;;1.40;;
42030;SDS011;27709;52.036;5.906;2023-02-28T12:51:40;1.93;;;1.13;;
42030;SDS011;27709;52.036;5.906;2023-02-28T12:57:01;3.35;;;1.60;;
42030;SDS011;27709;52.036;5.906;2023-02-28T13:02:09;10.63;;;1.80;;
42030;SDS011;27709;52.036;5.906;2023-02-28T13:10:49;8.20;;;2.20;;
42030;SDS011;27709;52.036;5.906;2023-02-28T13:13:20;5.28;;;1.30;;
42030;SDS011;27709;52.036;5.906;2023-02-28T13:18:32;8.18;;;2.03;;
42030;SDS011;27709;52.036;5.906;2023-02-28T13:21:04;19.98;;;2.67;;
42030;SDS011;27709;52.036;5.906;2023-02-28T13:26:09;1.80;;;1.20;;
42030;SDS011;27709;52.036;5.906;2023-02-28T13:31:25;2.35;;;1.40;;
42030;SDS011;27709;52.036;5.906;2023-02-28T13:36:27;2.63;;;1.20;;
42030;SDS011;27709;52.036;5.906;2023-02-28T13:38:58;2.22;;;1.30;;
42030;SDS011;27709;52.036;5.906;2023-02-28T13:51:53;6.18;;;1.75;;
42030;SDS011;27709;52.036;5.906;2023-02-28T13:57:23;2.90;;;1.55;;
42030;SDS011;27709;52.036;5.906;2023-02-28T14:00:02;2.75;;;1.65;;
42030;SDS011;27709;52.036;5.906;2023-02-28T14:03:07;4.07;;;1.67;;
42030;SDS011;27709;52.036;5.906;2023-02-28T14:08:35;2.88;;;1.70;;
42030;SDS011;27709;52.036;5.906;2023-02-28T14:11:06;2.95;;;1.40;;
42030;SDS011;27709;52.036;5.906;2023-02-28T14:13:48;2.38;;;1.20;;
42030;SDS011;27709;52.036;5.906;2023-02-28T14:16:15;2.83;;;1.20;;
42030;SDS011;27709;52.036;5.906;2023-02-28T14:19:01;3.15;;;1.55;;
42030;SDS011;27709;52.036;5.906;2023-02-28T14:21:31;2.22;;;1.25;;
42030;SDS011;27709;52.036;5.906;2023-02-28T14:27:05;2.50;;;1.40;;
42030;SDS011;27709;52.036;5.906;2023-02-28T14:32:06;2.03;;;1.52;;
42030;SDS011;27709;52.036;5.906;2023-02-28T14:34:42;2.13;;;1.20;;
42030;SDS011;27709;52.036;5.906;2023-02-28T14:37:19;2.33;;;1.20;;
42030;SDS011;27709;52.036;5.906;2023-02-28T14:39:51;2.80;;;1.30;;
42030;SDS011;27709;52.036;5.906;2023-02-28T14:42:27;1.95;;;1.27;;
42030;SDS011;27709;52.036;5.906;2023-02-28T14:45:00;2.40;;;1.25;;
42030;SDS011;27709;52.036;5.906;2023-02-28T14:47:30;2.00;;;1.00;;
42030;SDS011;27709;52.036;5.906;2023-02-28T14:49:58;2.00;;;1.20;;
42030;SDS011;27709;52.036;5.906;2023-02-28T14:52:29;2.30;;;1.20;;
42030;SDS011;27709;52.036;5.906;2023-02-28T14:55:01;2.75;;;1.50;;
42030;SDS011;27709;52.036;5.906;2023-02-28T14:57:31;3.38;;;1.27;;
42030;SDS011;27709;52.036;5.906;2023-02-28T15:00:16;2.40;;;1.50;;
42030;SDS011;27709;52.036;5.906;2023-02-28T15:02:46;3.40;;;1.10;;
42030;SDS011;27709;52.036;5.906;2023-02-28T15:07:37;3.67;;;1.48;;
42030;SDS011;27709;52.036;5.906;2023-02-28T15:10:10;2.03;;;1.35;;
42030;SDS011;27709;52.036;5.906;2023-02-28T15:12:56;2.13;;;1.10;;
42030;SDS011;27709;52.036;5.906;2023-02-28T15:15:29;2.10;;;1.30;;
42030;SDS011;27709;52.036;5.906;2023-02-28T15:18:19;2.58;;;1.33;;
42030;SDS011;27709;52.036;5.906;2023-02-28T15:20:51;2.00;;;1.20;;
42030;SDS011;27709;52.036;5.906;2023-02-28T15:23:17;2.05;;;1.20;;
42030;SDS011;27709;52.036;5.906;2023-02-28T15:25:45;2.35;;;1.00;;
42030;SDS011;27709;52.036;5.906;2023-02-28T15:28:12;3.53;;;1.30;;
42030;SDS011;27709;52.036;5.906;2023-02-28T15:30:50;3.30;;;1.20;;
42030;SDS011;27709;52.036;5.906;2023-02-28T15:33:27;2.03;;;1.33;;
42030;SDS011;27709;52.036;5.906;2023-02-28T15:36:03;3.30;;;1.20;;
42030;SDS011;27709;52.036;5.906;2023-02-28T15:38:40;2.70;;;1.10;;
42030;SDS011;27709;52.036;5.906;2023-02-28T15:41:20;2.00;;;1.10;;
42030;SDS011;27709;52.036;5.906;2023-02-28T15:46:41;3.30;;;1.50;;
42030;SDS011;27709;52.036;5.906;2023-02-28T15:49:19;2.38;;;0.90;;
42030;SDS011;27709;52.036;5.906;2023-02-28T15:51:46;2.40;;;1.30;;
42030;SDS011;27709;52.036;5.906;2023-02-28T15:54:15;3.60;;;1.40;;
42030;SDS011;27709;52.036;5.906;2023-02-28T15:56:46;2.67;;;0.90;;
42030;SDS011;27709;52.036;5.906;2023-02-28T15:59:17;2.70;;;1.20;;
42030;SDS011;27709;52.036;5.906;2023-02-28T16:01:44;2.42;;;1.13;;
42030;SDS011;27709;52.036;5.906;2023-02-28T16:04:19;3.58;;;1.10;;
42030;SDS011;27709;52.036;5.906;2023-02-28T16:06:46;2.80;;;1.23;;
42030;SDS011;27709;52.036;5.906;2023-02-28T16:09:32;2.97;;;1.27;;
42030;SDS011;27709;52.036;5.906;2023-02-28T16:12:01;2.50;;;1.50;;
42030;SDS011;27709;52.036;5.906;2023-02-28T16:14:29;1.88;;;1.08;;
42030;SDS011;27709;52.036;5.906;2023-02-28T16:17:03;2.90;;;1.58;;
42030;SDS011;27709;52.036;5.906;2023-02-28T16:19:33;2.58;;;1.30;;
42030;SDS011;27709;52.036;5.906;2023-02-28T16:21:59;2.88;;;1.38;;
42030;SDS011;27709;52.036;5.906;2023-02-28T16:24:25;3.97;;;1.25;;
42030;SDS011;27709;52.036;5.906;2023-02-28T16:26:51;2.30;;;1.20;;
42030;SDS011;27709;52.036;5.906;2023-02-28T16:29:23;2.80;;;1.13;;
42030;SDS011;27709;52.036;5.906;2023-02-28T16:31:52;2.42;;;1.00;;
42030;SDS011;27709;52.036;5.906;2023-02-28T16:34:18;2.58;;;1.17;;
42030;SDS011;27709;52.036;5.906;2023-02-28T16:36:46;2.15;;;1.13;;
42030;SDS011;27709;52.036;5.906;2023-02-28T16:39:12;2.33;;;1.20;;
42030;SDS011;27709;52.036;5.906;2023-02-28T16:41:38;2.38;;;1.10;;
42030;SDS011;27709;52.036;5.906;2023-02-28T16:44:09;2.45;;;1.00;;
42030;SDS011;27709;52.036;5.906;2023-02-28T16:46:38;1.75;;;0.80;;
42030;SDS011;27709;52.036;5.906;2023-02-28T16:49:03;1.48;;;0.70;;
42030;SDS011;27709;52.036;5.906;2023-02-28T16:51:29;3.70;;;0.90;;
42030;SDS011;27709;52.036;5.906;2023-02-28T16:53:54;1.63;;;0.90;;
42030;SDS011;27709;52.036;5.906;2023-02-28T16:56:21;2.65;;;0.80;;
42030;SDS011;27709;52.036;5.906;2023-02-28T16:58:48;2.20;;;1.00;;
42030;SDS011;27709;52.036;5.906;2023-02-28T17:01:15;2.40;;;1.02;;
42030;SDS011;27709;52.036;5.906;2023-02-28T17:03:46;2.17;;;0.90;;
42030;SDS011;27709;52.036;5.906;2023-02-28T17:06:16;2.30;;;0.90;;
42030;SDS011;27709;52.036;5.906;2023-02-28T17:08:47;2.40;;;1.05;;
42030;SDS011;27709;52.036;5.906;2023-02-28T17:11:13;2.33;;;0.70;;
42030;SDS011;27709;52.036;5.906;2023-02-28T17:13:39;1.38;;;0.70;;
42030;SDS011;27709;52.036;5.906;2023-02-28T17:16:04;2.63;;;0.90;;
42030;SDS011;27709;52.036;5.906;2023-02-28T17:18:30;1.33;;;0.80;;
42030;SDS011;27709;52.036;5.906;2023-02-28T17:20:59;1.20;;;0.70;;
42030;SDS011;27709;52.036;5.906;2023-02-28T17:23:25;2.85;;;0.80;;
42030;SDS011;27709;52.036;5.906;2023-02-28T17:25:51;2.92;;;0.82;;